Time;durP1;ratioP1;P1;durP2;ratioP2;P2;SDS_P1;SDS_P2;PMS_P1;PMS_P2;Temp;Humidity;BMP_temperature;BMP_pressure;BME280_temperature;BME280_humidity;BME280_pressure;Samples;Min_cycle;Max_cycle;Signal;HPM_P1;HPM_P2
2022/08/10 00:00:40;;;;;;;6.07;3.42;;;;;;;;;;5075693;28;20215;-39
2022/08/10 00:03:08;;;;;;;6.70;3.10;;;;;;;;;;5075570;28;20217;-39
2022/08/10 00:05:36;;;;;;;4.82;2.97;;;;;;;;;;5075818;28;20239;-39
2022/08/10 00:08:20;;;;;;;5.15;2.65;;;;;;;;;;5075662;28;20245;-39
2022/08/10 00:10:54;;;;;;;7.00;3.28;;;;;;;;;;5075183;28;20294;-39
2022/08/10 00:13:24;;;;;;;4.07;2.70;;;;;;;;;;5075673;28;20188;-39
2022/08/10 00:15:51;;;;;;;3.83;2.83;;;;;;;;;;5074913;28;20219;-41
2022/08/10 00:18:24;;;;;;;4.30;3.00;;;;;;;;;;5075147;28;20544;-40
2022/08/10 00:21:06;;;;;;;7.18;2.70;;;;;;;;;;5075043;28;20199;-39
2022/08/10 00:23:35;;;;;;;5.20;2.83;;;;;;;;;;5075294;28;20203;-39
2022/08/10 00:26:04;;;;;;;4.15;2.50;;;;;;;;;;5075185;28;20526;-39
2022/08/10 00:28:31;;;;;;;3.33;2.60;;;;;;;;;;5075319;28;20209;-39
2022/08/10 00:30:58;;;;;;;4.90;2.97;;;;;;;;;;5074907;28;20272;-39
2022/08/10 00:33:25;;;;;;;3.95;2.88;;;;;;;;;;5074866;28;20199;-39
2022/08/10 00:35:52;;;;;;;6.03;2.65;;;;;;;;;;5074958;28;20223;-39
2022/08/10 00:38:19;;;;;;;3.88;2.78;;;;;;;;;;5075094;28;20195;-39
2022/08/10 00:40:46;;;;;;;5.88;3.00;;;;;;;;;;5075001;28;20203;-39
2022/08/10 00:43:14;;;;;;;5.50;2.80;;;;;;;;;;5069462;28;20277;-41
2022/08/10 00:45:51;;;;;;;3.88;2.45;;;;;;;;;;5074987;28;20211;-39
2022/08/10 00:48:29;;;;;;;3.38;2.67;;;;;;;;;;5074708;28;20286;-39
2022/08/10 00:50:58;;;;;;;9.32;2.58;;;;;;;;;;5074970;28;20183;-39
2022/08/10 00:53:26;;;;;;;4.22;2.85;;;;;;;;;;5074745;28;20203;-39
2022/08/10 00:55:53;;;;;;;4.03;2.90;;;;;;;;;;5074586;28;20223;-39
2022/08/10 00:58:40;;;;;;;6.75;2.78;;;;;;;;;;5074609;28;20207;-39
2022/08/10 01:01:07;;;;;;;3.53;2.60;;;;;;;;;;5073725;28;20622;-39
2022/08/10 01:03:54;;;;;;;5.75;2.78;;;;;;;;;;5076681;28;20241;-39
2022/08/10 01:06:53;;;;;;;7.03;3.00;;;;;;;;;;5079158;28;20191;-40
2022/08/10 01:09:27;;;;;;;4.78;2.78;;;;;;;;;;5077915;28;20199;-39
2022/08/10 01:12:18;;;;;;;7.97;2.97;;;;;;;;;;5078663;28;20629;-39
2022/08/10 01:15:30;;;;;;;3.55;2.88;;;;;;;;;;5078476;28;20542;-39
2022/08/10 01:18:04;;;;;;;3.90;2.80;;;;;;;;;;5078180;28;20195;-39
2022/08/10 01:20:43;;;;;;;5.72;3.03;;;;;;;;;;5077764;28;20203;-39
2022/08/10 01:23:52;;;;;;;5.43;2.88;;;;;;;;;;5078345;28;20198;-40
2022/08/10 01:26:42;;;;;;;5.30;3.53;;;;;;;;;;5059493;28;20568;-39
2022/08/10 01:29:28;;;;;;;3.70;3.10;;;;;;;;;;5077759;28;20256;-39
2022/08/10 01:32:01;;;;;;;4.30;3.08;;;;;;;;;;5078633;28;20191;-39
2022/08/10 01:34:36;;;;;;;11.00;3.72;;;;;;;;;;5077605;28;20241;-39
2022/08/10 01:37:13;;;;;;;4.32;3.25;;;;;;;;;;5078322;28;20215;-39
2022/08/10 01:39:43;;;;;;;6.10;3.33;;;;;;;;;;5072647;28;20219;-40
2022/08/10 01:42:14;;;;;;;4.43;3.45;;;;;;;;;;5077151;28;20591;-39
2022/08/10 01:44:52;;;;;;;10.75;3.50;;;;;;;;;;5077009;28;20199;-39
2022/08/10 01:50:24;;;;;;;4.93;3.28;;;;;;;;;;5077538;28;20199;-39
2022/08/10 01:52:55;;;;;;;7.35;3.58;;;;;;;;;;5077005;28;20203;-40
2022/08/10 01:55:23;;;;;;;6.47;3.42;;;;;;;;;;5077081;28;20571;-40
2022/08/10 01:57:52;;;;;;;6.93;3.72;;;;;;;;;;5060250;28;20610;-40
2022/08/10 02:00:19;;;;;;;4.32;3.40;;;;;;;;;;5076761;28;20203;-39
2022/08/10 02:02:47;;;;;;;6.72;3.80;;;;;;;;;;5076883;28;20272;-39
2022/08/10 02:05:15;;;;;;;6.72;3.90;;;;;;;;;;5076611;28;20700;-39
2022/08/10 02:07:43;;;;;;;7.72;3.45;;;;;;;;;;5076998;28;20196;-39
2022/08/10 02:10:12;;;;;;;8.13;3.60;;;;;;;;;;5076801;28;20199;-40
2022/08/10 02:12:40;;;;;;;6.05;3.53;;;;;;;;;;5076840;28;20265;-39
2022/08/10 02:15:12;;;;;;;5.75;3.42;;;;;;;;;;5076231;28;20199;-39
2022/08/10 02:17:43;;;;;;;6.07;3.45;;;;;;;;;;5077948;28;20211;-39
2022/08/10 02:20:31;;;;;;;4.65;3.58;;;;;;;;;;5076638;28;20207;-39
2022/08/10 02:23:05;;;;;;;4.72;3.60;;;;;;;;;;5076780;28;20210;-40
2022/08/10 02:25:32;;;;;;;3.88;3.25;;;;;;;;;;5077196;28;20626;-40
2022/08/10 02:28:13;;;;;;;8.52;4.22;;;;;;;;;;5076604;28;20199;-39
2022/08/10 02:31:00;;;;;;;4.47;3.20;;;;;;;;;;5076617;28;20260;-39
2022/08/10 02:33:28;;;;;;;8.48;3.60;;;;;;;;;;5070750;28;20602;-40
2022/08/10 02:35:57;;;;;;;3.85;3.15;;;;;;;;;;5075890;28;20199;-39
2022/08/10 02:38:32;;;;;;;5.15;3.80;;;;;;;;;;5075805;28;20214;-39
2022/08/10 02:41:33;;;;;;;5.65;3.40;;;;;;;;;;5076235;28;20207;-39
2022/08/10 02:44:44;;;;;;;8.90;3.65;;;;;;;;;;5075880;28;20271;-39
2022/08/10 02:47:42;;;;;;;5.95;3.90;;;;;;;;;;5076530;28;20207;-39
2022/08/10 02:50:27;;;;;;;5.03;3.50;;;;;;;;;;5076742;28;20191;-39
2022/08/10 02:53:11;;;;;;;6.95;3.70;;;;;;;;;;5076499;28;20618;-39
2022/08/10 02:55:58;;;;;;;5.43;3.38;;;;;;;;;;5076023;28;20214;-39
2022/08/10 02:58:36;;;;;;;5.15;3.30;;;;;;;;;;5076342;28;20727;-39
2022/08/10 03:01:08;;;;;;;5.75;3.55;;;;;;;;;;5075706;28;20207;-39
2022/08/10 03:03:43;;;;;;;7.78;3.55;;;;;;;;;;5075293;28;20657;-39
2022/08/10 03:06:15;;;;;;;5.78;3.70;;;;;;;;;;5075467;28;20246;-39
2022/08/10 03:08:43;;;;;;;7.65;3.70;;;;;;;;;;5075332;28;20199;-39
2022/08/10 03:11:21;;;;;;;5.25;3.88;;;;;;;;;;5075196;28;20665;-39
2022/08/10 03:14:09;;;;;;;5.53;3.60;;;;;;;;;;5075303;28;20520;-39
2022/08/10 03:16:37;;;;;;;5.43;3.60;;;;;;;;;;5075914;28;20231;-39
2022/08/10 03:19:05;;;;;;;9.88;3.97;;;;;;;;;;5058735;28;20507;-40
2022/08/10 03:21:53;;;;;;;6.53;3.85;;;;;;;;;;5075183;28;20200;-39
2022/08/10 03:24:21;;;;;;;4.68;3.75;;;;;;;;;;5075099;28;20187;-40
2022/08/10 03:27:00;;;;;;;4.85;3.50;;;;;;;;;;5075141;28;20203;-39
2022/08/10 03:29:27;;;;;;;4.10;3.35;;;;;;;;;;5070881;28;20306;-39
2022/08/10 03:31:56;;;;;;;6.55;3.70;;;;;;;;;;5075680;28;20195;-39
2022/08/10 03:34:24;;;;;;;6.15;3.80;;;;;;;;;;5074843;28;20195;-39
2022/08/10 03:36:59;;;;;;;5.50;3.90;;;;;;;;;;5074921;28;20238;-39
2022/08/10 03:39:27;;;;;;;5.45;3.97;;;;;;;;;;5075754;28;20210;-39
2022/08/10 03:41:57;;;;;;;8.25;4.07;;;;;;;;;;5075066;28;20203;-39
2022/08/10 03:44:27;;;;;;;9.55;3.90;;;;;;;;;;5075429;28;20211;-39
2022/08/10 03:46:58;;;;;;;7.22;3.65;;;;;;;;;;5075576;28;20225;-39
2022/08/10 03:49:26;;;;;;;5.95;3.90;;;;;;;;;;5074962;28;20642;-40
2022/08/10 03:51:54;;;;;;;7.45;3.95;;;;;;;;;;5075492;28;20213;-39
2022/08/10 03:54:23;;;;;;;6.95;3.83;;;;;;;;;;5074664;28;20203;-40
2022/08/10 03:56:50;;;;;;;5.15;4.20;;;;;;;;;;5074771;28;20292;-40
2022/08/10 03:59:17;;;;;;;5.13;3.58;;;;;;;;;;5074476;28;20634;-39
2022/08/10 04:01:45;;;;;;;8.10;3.83;;;;;;;;;;5075379;28;20203;-39
2022/08/10 04:04:32;;;;;;;8.70;3.78;;;;;;;;;;5075142;28;20296;-40
2022/08/10 04:07:00;;;;;;;6.82;4.53;;;;;;;;;;5075386;28;20203;-39
2022/08/10 04:09:32;;;;;;;8.85;3.90;;;;;;;;;;5074441;28;20199;-39
2022/08/10 04:12:20;;;;;;;6.82;4.45;;;;;;;;;;5075292;28;20208;-39
2022/08/10 04:14:47;;;;;;;6.47;4.03;;;;;;;;;;5075129;28;20685;-39
2022/08/10 04:17:19;;;;;;;5.90;3.95;;;;;;;;;;5075330;28;20208;-39
2022/08/10 04:20:11;;;;;;;4.85;3.80;;;;;;;;;;5075462;28;20521;-40
2022/08/10 04:22:38;;;;;;;8.15;4.38;;;;;;;;;;5074622;28;20278;-39
2022/08/10 04:25:07;;;;;;;5.88;4.47;;;;;;;;;;5074398;28;20224;-39
2022/08/10 04:27:34;;;;;;;7.18;4.20;;;;;;;;;;5070210;28;20203;-40
2022/08/10 04:30:01;;;;;;;6.95;4.65;;;;;;;;;;5074717;28;20209;-39
2022/08/10 04:32:30;;;;;;;6.28;4.25;;;;;;;;;;5073965;28;20231;-39
2022/08/10 04:34:58;;;;;;;5.97;3.95;;;;;;;;;;5074968;28;20245;-39
2022/08/10 04:37:26;;;;;;;5.45;4.13;;;;;;;;;;5073912;28;20226;-39
2022/08/10 04:39:53;;;;;;;6.40;4.35;;;;;;;;;;5074704;28;20230;-39
2022/08/10 04:42:20;;;;;;;10.52;4.65;;;;;;;;;;5074052;28;20203;-40
2022/08/10 04:44:48;;;;;;;5.43;4.25;;;;;;;;;;5074977;28;20264;-39
2022/08/10 04:47:15;;;;;;;8.13;4.18;;;;;;;;;;5079271;28;20256;-42
2022/08/10 04:50:03;;;;;;;10.32;4.90;;;;;;;;;;5080714;28;20203;-44
2022/08/10 04:52:30;;;;;;;5.82;4.45;;;;;;;;;;5083039;28;20724;-40
2022/08/10 04:54:57;;;;;;;8.75;4.90;;;;;;;;;;5083270;28;20626;-39
2022/08/10 04:57:25;;;;;;;9.30;4.65;;;;;;;;;;5082420;28;20223;-42
2022/08/10 04:59:52;;;;;;;5.07;4.20;;;;;;;;;;5083683;28;20644;-40
2022/08/10 05:02:18;;;;;;;7.85;4.50;;;;;;;;;;5081363;28;20207;-40
2022/08/10 05:05:05;;;;;;;8.25;4.80;;;;;;;;;;5084147;28;20238;-40
2022/08/10 05:07:32;;;;;;;6.53;4.45;;;;;;;;;;5083120;28;20210;-40
2022/08/10 05:10:19;;;;;;;7.43;4.70;;;;;;;;;;5082839;28;20198;-41
2022/08/10 05:12:46;;;;;;;7.38;4.57;;;;;;;;;;5082107;28;20203;-41
2022/08/10 05:15:14;;;;;;;7.25;4.78;;;;;;;;;;5082483;28;20202;-41
2022/08/10 05:17:41;;;;;;;8.00;4.88;;;;;;;;;;5083512;28;20564;-41
2022/08/10 05:20:29;;;;;;;6.15;4.53;;;;;;;;;;5076521;28;20660;-41
2022/08/10 05:22:56;;;;;;;7.30;4.90;;;;;;;;;;5069910;28;20229;-40
2022/08/10 05:25:23;;;;;;;6.00;4.22;;;;;;;;;;5063798;28;20285;-41
2022/08/10 05:27:49;;;;;;;7.00;4.03;;;;;;;;;;5056663;28;20642;-39
2022/08/10 05:30:20;;;;;;;6.43;4.45;;;;;;;;;;5082316;28;20269;-39
2022/08/10 05:32:48;;;;;;;6.30;4.43;;;;;;;;;;5076540;28;20195;-41
2022/08/10 05:35:27;;;;;;;5.68;4.25;;;;;;;;;;5081841;28;20198;-40
2022/08/10 05:37:55;;;;;;;5.65;3.92;;;;;;;;;;5080198;28;20227;-41
2022/08/10 05:40:41;;;;;;;8.30;4.30;;;;;;;;;;5079952;28;20195;-39
2022/08/10 05:43:17;;;;;;;5.18;3.90;;;;;;;;;;5068061;28;20205;-39
2022/08/10 05:45:46;;;;;;;6.07;3.90;;;;;;;;;;5054855;28;20207;-40
2022/08/10 05:48:37;;;;;;;5.43;3.25;;;;;;;;;;5060600;28;20243;-42
2022/08/10 05:51:24;;;;;;;4.57;3.45;;;;;;;;;;5066853;28;20215;-40
2022/08/10 05:53:52;;;;;;;7.68;3.50;;;;;;;;;;5057893;28;20219;-43
2022/08/10 05:56:32;;;;;;;7.78;3.20;;;;;;;;;;5068407;28;20199;-40
2022/08/10 05:59:19;;;;;;;7.70;2.80;;;;;;;;;;5069349;28;20549;-39
2022/08/10 06:02:07;;;;;;;3.65;2.90;;;;;;;;;;5077196;28;20206;-41
2022/08/10 06:04:56;;;;;;;3.75;2.60;;;;;;;;;;5077451;28;20235;-40
2022/08/10 06:07:26;;;;;;;8.43;2.90;;;;;;;;;;5076613;28;20552;-40
2022/08/10 06:09:55;;;;;;;3.55;2.80;;;;;;;;;;5076840;28;20207;-42
2022/08/10 06:12:28;;;;;;;6.38;3.13;;;;;;;;;;5077339;28;20210;-41
2022/08/10 06:15:16;;;;;;;5.07;3.30;;;;;;;;;;5067592;28;20223;-40
2022/08/10 06:18:04;;;;;;;6.18;3.08;;;;;;;;;;5074922;28;20238;-39
2022/08/10 06:20:32;;;;;;;4.90;3.30;;;;;;;;;;5075303;28;20673;-42
2022/08/10 06:23:03;;;;;;;4.85;2.72;;;;;;;;;;5076685;28;20226;-44
2022/08/10 06:25:31;;;;;;;8.38;2.97;;;;;;;;;;5075925;28;20230;-42
2022/08/10 06:28:18;;;;;;;5.25;2.60;;;;;;;;;;5075309;28;20289;-43
2022/08/10 06:30:46;;;;;;;4.32;2.60;;;;;;;;;;5076188;28;20223;-43
2022/08/10 06:33:13;;;;;;;4.10;2.88;;;;;;;;;;5075933;28;20561;-42
2022/08/10 06:35:41;;;;;;;8.15;2.88;;;;;;;;;;5075151;28;20219;-42
2022/08/10 06:38:10;;;;;;;3.85;2.95;;;;;;;;;;5074875;28;20304;-43
2022/08/10 06:40:39;;;;;;;3.80;2.20;;;;;;;;;;5074900;28;20238;-42
2022/08/10 06:43:09;;;;;;;4.20;2.63;;;;;;;;;;5072173;28;20224;-42
2022/08/10 06:45:43;;;;;;;4.15;2.40;;;;;;;;;;5074778;28;20231;-42
2022/08/10 06:49:06;;;;;;;6.03;2.33;;;;;;;;;;5075873;28;20223;-41
2022/08/10 06:51:35;;;;;;;4.85;2.78;;;;;;;;;;5094441;28;20214;-41
2022/08/10 06:54:06;;;;;;;3.38;2.40;;;;;;;;;;5069843;28;20219;-43
2022/08/10 06:56:40;;;;;;;3.40;2.00;;;;;;;;;;5054210;28;20219;-41
2022/08/10 06:59:35;;;;;;;4.43;2.22;;;;;;;;;;5039258;28;20678;-42
2022/08/10 07:02:18;;;;;;;3.42;2.10;;;;;;;;;;5053264;28;20231;-42
2022/08/10 07:05:02;;;;;;;3.88;2.10;;;;;;;;;;5053602;28;20250;-42
2022/08/10 07:07:34;;;;;;;2.17;1.60;;;;;;;;;;5053783;28;20220;-41
2022/08/10 07:10:01;;;;;;;3.38;1.98;;;;;;;;;;5053570;28;20220;-41
2022/08/10 07:12:29;;;;;;;3.17;2.05;;;;;;;;;;5050734;28;20238;-44
2022/08/10 07:14:57;;;;;;;2.40;2.03;;;;;;;;;;5051150;28;20236;-42
2022/08/10 07:17:25;;;;;;;6.43;1.95;;;;;;;;;;5068037;28;20257;-40
2022/08/10 07:19:57;;;;;;;4.10;1.90;;;;;;;;;;5093261;28;20226;-41
2022/08/10 07:22:27;;;;;;;4.10;1.70;;;;;;;;;;5082649;28;20234;-42
2022/08/10 07:25:18;;;;;;;2.40;1.70;;;;;;;;;;5053657;28;20247;-42
2022/08/10 07:27:45;;;;;;;5.35;2.10;;;;;;;;;;5054300;28;20224;-42
2022/08/10 07:30:27;;;;;;;2.20;1.88;;;;;;;;;;5075097;28;20291;-42
2022/08/10 07:32:55;;;;;;;3.40;2.10;;;;;;;;;;5085290;28;20218;-43
2022/08/10 07:35:23;;;;;;;3.35;1.92;;;;;;;;;;5091624;28;20219;-42
2022/08/10 07:37:50;;;;;;;5.30;2.35;;;;;;;;;;5076175;28;20791;-43
2022/08/10 07:40:19;;;;;;;5.15;2.60;;;;;;;;;;5075962;28;20227;-42
2022/08/10 07:42:51;;;;;;;4.28;2.50;;;;;;;;;;5084820;28;20635;-42
2022/08/10 07:45:18;;;;;;;3.05;2.33;;;;;;;;;;5093050;28;20237;-42
2022/08/10 07:47:51;;;;;;;6.43;3.40;;;;;;;;;;5084798;28;20222;-41
2022/08/10 07:50:23;;;;;;;5.35;2.40;;;;;;;;;;5092786;28;20249;-43
2022/08/10 07:52:52;;;;;;;2.63;2.20;;;;;;;;;;5094354;28;20669;-42
2022/08/10 07:55:20;;;;;;;10.05;2.47;;;;;;;;;;5093209;28;20226;-42
2022/08/10 07:58:09;;;;;;;5.68;2.40;;;;;;;;;;5082881;28;20673;-43
2022/08/10 08:00:36;;;;;;;4.10;2.38;;;;;;;;;;5084120;28;20214;-42
2022/08/10 08:03:06;;;;;;;3.85;2.20;;;;;;;;;;5080565;28;20233;-42
2022/08/10 08:05:34;;;;;;;5.88;2.70;;;;;;;;;;5081696;28;20241;-42
2022/08/10 08:08:21;;;;;;;4.38;1.95;;;;;;;;;;5073804;28;20276;-42
2022/08/10 08:10:49;;;;;;;6.47;2.35;;;;;;;;;;5072115;28;20224;-43
2022/08/10 08:13:19;;;;;;;4.25;2.50;;;;;;;;;;5071810;28;20553;-43
2022/08/10 08:15:46;;;;;;;4.63;2.30;;;;;;;;;;5074333;28;20665;-43
2022/08/10 08:18:34;;;;;;;3.60;2.40;;;;;;;;;;5074167;28;20234;-43
2022/08/10 08:21:03;;;;;;;3.05;2.17;;;;;;;;;;5081979;28;20645;-43
2022/08/10 08:23:50;;;;;;;6.40;2.70;;;;;;;;;;5092734;28;20577;-43
2022/08/10 08:26:38;;;;;;;6.85;3.33;;;;;;;;;;5075457;28;20514;-44
2022/08/10 08:29:08;;;;;;;7.82;2.63;;;;;;;;;;5083036;28;20560;-47
2022/08/10 08:31:36;;;;;;;6.32;2.08;;;;;;;;;;5080084;28;20223;-44
2022/08/10 08:34:20;;;;;;;4.47;2.53;;;;;;;;;;5078984;28;20287;-43
2022/08/10 08:36:48;;;;;;;5.03;2.08;;;;;;;;;;5083796;28;20241;-43
2022/08/10 08:39:16;;;;;;;5.95;2.35;;;;;;;;;;5092983;28;20231;-44
2022/08/10 08:41:45;;;;;;;2.90;2.60;;;;;;;;;;5091182;28;20240;-45
2022/08/10 08:44:33;;;;;;;7.75;2.25;;;;;;;;;;5080905;28;20727;-43
2022/08/10 08:47:22;;;;;;;10.13;2.80;;;;;;;;;;5086344;28;20665;-43
2022/08/10 08:50:15;;;;;;;5.05;2.00;;;;;;;;;;5093044;28;20225;-44
2022/08/10 08:52:55;;;;;;;4.60;1.95;;;;;;;;;;5082379;28;20224;-43
2022/08/10 08:56:01;;;;;;;4.95;2.33;;;;;;;;;;5087961;28;20322;-43
2022/08/10 08:58:48;;;;;;;3.33;1.80;;;;;;;;;;5088614;28;20580;-43
2022/08/10 09:01:48;;;;;;;5.15;2.20;;;;;;;;;;5072916;28;20242;-44
2022/08/10 09:04:32;;;;;;;3.88;2.25;;;;;;;;;;5052049;28;20219;-44
2022/08/10 09:07:17;;;;;;;6.38;1.92;;;;;;;;;;5061863;28;20227;-43
2022/08/10 09:10:26;;;;;;;4.93;2.22;;;;;;;;;;5061705;28;20746;-43
2022/08/10 09:13:00;;;;;;;4.07;1.88;;;;;;;;;;5057549;28;20325;-42
2022/08/10 09:16:03;;;;;;;4.60;1.80;;;;;;;;;;5018832;28;20345;-43
2022/08/10 09:18:41;;;;;;;3.55;1.80;;;;;;;;;;5044251;28;20301;-43
2022/08/10 09:21:11;;;;;;;4.45;1.70;;;;;;;;;;5062136;28;20246;-43
2022/08/10 09:23:40;;;;;;;2.10;1.67;;;;;;;;;;5063536;28;20211;-43
2022/08/10 09:26:34;;;;;;;3.33;1.73;;;;;;;;;;5055601;28;20219;-45
2022/08/10 09:29:03;;;;;;;2.70;1.67;;;;;;;;;;5041376;28;20214;-43
2022/08/10 09:31:46;;;;;;;2.35;1.58;;;;;;;;;;5055156;28;20219;-39
2022/08/10 09:34:55;;;;;;;3.55;1.30;;;;;;;;;;5040665;28;20207;-40
2022/08/10 09:37:47;;;;;;;3.78;1.90;;;;;;;;;;5058938;28;20242;-41
2022/08/10 09:40:46;;;;;;;3.28;1.75;;;;;;;;;;5042254;28;20229;-42
2022/08/10 09:43:41;;;;;;;2.08;1.42;;;;;;;;;;5068570;28;20264;-41
2022/08/10 09:46:32;;;;;;;3.00;1.60;;;;;;;;;;5077039;28;20188;-44
2022/08/10 09:49:20;;;;;;;9.10;1.80;;;;;;;;;;5077840;28;20272;-42
2022/08/10 09:52:30;;;;;;;5.53;1.60;;;;;;;;;;5076671;28;20199;-41
2022/08/10 09:55:17;;;;;;;3.42;1.65;;;;;;;;;;5034008;28;20639;-41
2022/08/10 09:57:58;;;;;;;2.63;1.52;;;;;;;;;;5009154;28;20256;-41
2022/08/10 10:00:34;;;;;;;1.70;1.15;;;;;;;;;;5013950;28;20280;-43
2022/08/10 10:03:18;;;;;;;2.45;1.33;;;;;;;;;;5015887;28;20201;-43
2022/08/10 10:05:57;;;;;;;1.55;1.27;;;;;;;;;;5015702;28;20225;-41
2022/08/10 10:08:32;;;;;;;3.88;1.30;;;;;;;;;;5016328;28;20255;-41
2022/08/10 10:11:21;;;;;;;5.50;1.08;;;;;;;;;;5016181;28;20313;-41
2022/08/10 10:13:58;;;;;;;2.28;1.38;;;;;;;;;;5016215;28;20205;-40
2022/08/10 10:16:31;;;;;;;2.30;1.48;;;;;;;;;;5000883;28;20216;-41
2022/08/10 10:19:07;;;;;;;2.97;1.35;;;;;;;;;;5015752;28;20222;-42
2022/08/10 10:21:43;;;;;;;2.35;1.48;;;;;;;;;;5015944;28;20198;-42
2022/08/10 10:24:43;;;;;;;4.53;1.75;;;;;;;;;;5016363;28;20217;-41
2022/08/10 10:27:13;;;;;;;1.98;1.40;;;;;;;;;;5015892;28;20193;-41
2022/08/10 10:29:56;;;;;;;1.90;1.33;;;;;;;;;;5015796;28;20201;-43
2022/08/10 10:32:36;;;;;;;1.95;1.55;;;;;;;;;;5054112;28;20318;-40
2022/08/10 10:35:18;;;;;;;2.20;1.40;;;;;;;;;;5057340;28;20204;-40
2022/08/10 10:37:46;;;;;;;2.88;1.67;;;;;;;;;;5056369;28;20195;-41
2022/08/10 10:40:44;;;;;;;2.15;1.52;;;;;;;;;;5056512;28;20215;-42
2022/08/10 10:43:33;;;;;;;2.28;1.35;;;;;;;;;;5056845;28;20208;-40
2022/08/10 10:46:28;;;;;;;5.60;1.40;;;;;;;;;;5057105;28;20192;-40
2022/08/10 10:49:26;;;;;;;5.88;1.60;;;;;;;;;;5072910;28;20214;-41
2022/08/10 10:52:18;;;;;;;5.38;1.23;;;;;;;;;;5069874;28;20214;-41
2022/08/10 10:55:22;;;;;;;3.53;1.20;;;;;;;;;;5072610;28;20192;-45
2022/08/10 10:57:58;;;;;;;2.63;1.30;;;;;;;;;;5069664;28;20226;-45
2022/08/10 11:00:36;;;;;;;3.03;1.20;;;;;;;;;;5075834;28;20222;-42
2022/08/10 11:03:06;;;;;;;2.17;1.27;;;;;;;;;;5058496;28;20607;-42
2022/08/10 11:05:36;;;;;;;3.25;1.48;;;;;;;;;;5075877;28;20235;-41
2022/08/10 11:08:15;;;;;;;2.70;1.42;;;;;;;;;;5076241;28;20260;-42
2022/08/10 11:10:46;;;;;;;4.70;1.50;;;;;;;;;;5074479;28;20219;-42
2022/08/10 11:13:28;;;;;;;1.92;1.23;;;;;;;;;;5074746;28;20220;-42
2022/08/10 11:16:26;;;;;;;3.10;1.30;;;;;;;;;;5075831;28;20237;-42
2022/08/10 11:19:29;;;;;;;3.45;1.13;;;;;;;;;;5074805;28;20226;-43
2022/08/10 11:22:38;;;;;;;4.28;1.40;;;;;;;;;;5074765;28;20717;-43
2022/08/10 11:25:10;;;;;;;4.32;1.23;;;;;;;;;;5075341;28;20223;-42
2022/08/10 11:27:47;;;;;;;3.13;1.25;;;;;;;;;;5075086;28;20239;-42
2022/08/10 11:30:24;;;;;;;9.30;1.50;;;;;;;;;;5071484;28;20533;-42
2022/08/10 11:33:03;;;;;;;1.70;1.23;;;;;;;;;;5064031;28;20218;-43
2022/08/10 11:35:55;;;;;;;2.00;1.20;;;;;;;;;;5067720;28;20241;-46
2022/08/10 11:39:09;;;;;;;3.25;1.42;;;;;;;;;;5073092;28;20227;-43
2022/08/10 11:41:50;;;;;;;7.30;1.25;;;;;;;;;;5070900;28;20230;-46
2022/08/10 11:44:52;;;;;;;8.45;1.50;;;;;;;;;;5073860;28;20208;-43
2022/08/10 11:47:26;;;;;;;2.90;1.20;;;;;;;;;;5073789;28;20602;-43
2022/08/10 11:50:02;;;;;;;3.88;1.23;;;;;;;;;;5078759;28;20206;-43
2022/08/10 11:53:16;;;;;;;2.13;1.50;;;;;;;;;;5073478;28;20187;-42
2022/08/10 11:55:48;;;;;;;2.63;1.20;;;;;;;;;;5061221;28;20642;-40
2022/08/10 12:01:05;;;;;;;5.03;1.63;;;;;;;;;;5046354;28;20207;-43
2022/08/10 12:03:35;;;;;;;2.00;1.10;;;;;;;;;;5054396;28;20530;-43
2022/08/10 12:06:12;;;;;;;2.60;1.10;;;;;;;;;;5053840;28;20232;-42
2022/08/10 12:08:43;;;;;;;7.45;1.40;;;;;;;;;;5052902;28;20191;-42
2022/08/10 12:11:30;;;;;;;2.83;1.27;;;;;;;;;;5054309;28;20592;-43
2022/08/10 12:14:17;;;;;;;9.68;5.22;;;;;;;;;;5053840;28;20212;-43
2022/08/10 12:16:54;;;;;;;22.25;13.38;;;;;;;;;;5054425;28;20192;-43
2022/08/10 12:19:35;;;;;;;3.72;1.63;;;;;;;;;;5054326;28;20212;-43
2022/08/10 12:22:28;;;;;;;4.60;2.30;;;;;;;;;;5055292;28;20206;-42
2022/08/10 12:25:02;;;;;;;4.80;1.70;;;;;;;;;;5054530;28;20188;-44
2022/08/10 12:27:40;;;;;;;5.57;1.60;;;;;;;;;;5055167;28;20203;-42
2022/08/10 12:30:10;;;;;;;3.30;1.70;;;;;;;;;;5054354;28;20262;-42
2022/08/10 12:32:47;;;;;;;6.63;2.20;;;;;;;;;;5053948;28;20196;-42
2022/08/10 12:35:29;;;;;;;4.15;2.10;;;;;;;;;;5053589;28;20222;-42
2022/08/10 12:37:56;;;;;;;11.00;5.25;;;;;;;;;;5054504;28;20203;-40
2022/08/10 12:40:26;;;;;;;14.50;9.00;;;;;;;;;;5054642;28;20587;-40
2022/08/10 12:43:11;;;;;;;12.85;6.50;;;;;;;;;;5053917;28;20192;-40
2022/08/10 12:46:03;;;;;;;25.98;15.65;;;;;;;;;;5053461;28;20219;-40
2022/08/10 12:49:10;;;;;;;16.58;12.93;;;;;;;;;;5063732;28;20280;-43
2022/08/10 12:51:45;;;;;;;13.43;8.93;;;;;;;;;;5072150;28;20277;-43
2022/08/10 12:54:17;;;;;;;7.53;5.65;;;;;;;;;;5058995;28;20242;-42
2022/08/10 12:57:01;;;;;;;10.85;5.65;;;;;;;;;;5072497;28;20669;-42
2022/08/10 12:59:30;;;;;;;6.00;1.90;;;;;;;;;;5071240;28;21323;-44
2022/08/10 13:01:58;;;;;;;16.52;7.80;;;;;;;;;;5071078;28;20288;-48
2022/08/10 13:04:39;;;;;;;14.32;6.75;;;;;;;;;;5071846;28;20227;-43
2022/08/10 13:07:06;;;;;;;27.65;10.25;;;;;;;;;;5071806;28;20235;-43
2022/08/10 13:09:33;;;;;;;38.97;16.35;;;;;;;;;;5073066;28;20567;-43
2022/08/10 13:12:21;;;;;;;2.50;1.40;;;;;;;;;;5073843;28;20219;-43
2022/08/10 13:15:13;;;;;;;6.28;2.60;;;;;;;;;;5072475;28;20670;-44
2022/08/10 13:18:02;;;;;;;5.35;2.58;;;;;;;;;;5052570;28;20254;-43
2022/08/10 13:20:34;;;;;;;12.60;7.28;;;;;;;;;;5053648;28;20220;-41
2022/08/10 13:23:05;;;;;;;18.42;8.30;;;;;;;;;;5054452;28;20199;-40
2022/08/10 13:25:35;;;;;;;8.73;4.65;;;;;;;;;;5075437;28;20191;-41
2022/08/10 13:28:06;;;;;;;21.02;12.90;;;;;;;;;;5075517;28;20432;-42
2022/08/10 13:30:54;;;;;;;2.95;1.48;;;;;;;;;;5079536;28;20565;-43
2022/08/10 13:33:25;;;;;;;19.52;11.23;;;;;;;;;;5078425;28;20199;-41
2022/08/10 13:36:14;;;;;;;2.67;1.48;;;;;;;;;;5082270;28;20578;-41
2022/08/10 13:38:42;;;;;;;4.20;1.60;;;;;;;;;;5074676;28;20200;-40
2022/08/10 13:41:10;;;;;;;5.60;2.15;;;;;;;;;;5082094;28;20546;-41
2022/08/10 13:43:48;;;;;;;4.50;1.45;;;;;;;;;;5080607;28;20195;-41
2022/08/10 13:46:17;;;;;;;35.17;13.02;;;;;;;;;;5081536;28;20227;-41
2022/08/10 13:48:52;;;;;;;10.15;2.00;;;;;;;;;;5080080;28;20219;-40
2022/08/10 13:51:22;;;;;;;65.93;44.33;;;;;;;;;;5074055;28;20199;-42
2022/08/10 13:54:10;;;;;;;3.58;2.40;;;;;;;;;;5070745;28;20191;-41
2022/08/10 13:56:41;;;;;;;24.65;20.05;;;;;;;;;;5070398;28;20210;-41
2022/08/10 13:59:09;;;;;;;66.30;47.35;;;;;;;;;;5069831;28;20215;-41
2022/08/10 14:01:49;;;;;;;4.53;1.52;;;;;;;;;;5081788;28;20187;-41
2022/08/10 14:04:17;;;;;;;6.30;2.03;;;;;;;;;;5082900;28;20222;-41
2022/08/10 14:06:54;;;;;;;5.25;2.65;;;;;;;;;;5078121;28;20578;-41
2022/08/10 14:09:29;;;;;;;2.85;1.75;;;;;;;;;;5080804;28;20260;-40
2022/08/10 14:11:57;;;;;;;3.85;1.45;;;;;;;;;;5075957;28;20195;-41
2022/08/10 14:14:26;;;;;;;1.75;1.20;;;;;;;;;;5076643;28;20200;-41
2022/08/10 14:16:54;;;;;;;2.92;1.30;;;;;;;;;;5075595;28;20499;-40
2022/08/10 14:19:23;;;;;;;5.57;1.30;;;;;;;;;;5075737;28;20234;-42
2022/08/10 14:21:51;;;;;;;2.75;2.40;;;;;;;;;;5081952;28;20521;-43
2022/08/10 14:24:26;;;;;;;3.40;1.63;;;;;;;;;;5084792;28;20195;-43
2022/08/10 14:27:15;;;;;;;4.47;1.52;;;;;;;;;;5097479;28;20186;-42
2022/08/10 14:29:45;;;;;;;4.15;1.40;;;;;;;;;;5096439;28;20228;-42
2022/08/10 14:32:15;;;;;;;4.60;1.63;;;;;;;;;;5096613;28;20237;-40
2022/08/10 14:34:44;;;;;;;2.95;1.40;;;;;;;;;;5097180;28;20599;-44
2022/08/10 14:37:38;;;;;;;6.40;1.30;;;;;;;;;;5097561;28;20179;-42
2022/08/10 14:40:12;;;;;;;3.20;1.48;;;;;;;;;;5090892;28;20276;-43
2022/08/10 14:42:43;;;;;;;3.97;1.88;;;;;;;;;;5085173;28;20242;-44
2022/08/10 14:45:34;;;;;;;2.85;1.00;;;;;;;;;;5072847;28;20219;-44
2022/08/10 14:48:12;;;;;;;3.15;1.35;;;;;;;;;;5068493;28;20219;-40
2022/08/10 14:50:40;;;;;;;2.35;0.90;;;;;;;;;;5075206;28;20219;-43
2022/08/10 14:53:27;;;;;;;3.92;1.88;;;;;;;;;;5075330;28;20216;-43
2022/08/10 14:56:06;;;;;;;3.13;1.30;;;;;;;;;;5053700;28;20220;-44
2022/08/10 14:58:53;;;;;;;2.42;1.27;;;;;;;;;;5075754;28;20535;-43
2022/08/10 15:01:39;;;;;;;4.80;1.30;;;;;;;;;;5074279;28;20218;-45
2022/08/10 15:04:26;;;;;;;2.33;1.23;;;;;;;;;;5078698;28;20227;-42
2022/08/10 15:07:01;;;;;;;4.72;1.40;;;;;;;;;;5076986;28;20198;-43
2022/08/10 15:09:31;;;;;;;1.75;1.13;;;;;;;;;;5085991;28;20188;-42
2022/08/10 15:12:18;;;;;;;3.88;1.10;;;;;;;;;;5081872;28;20194;-43
2022/08/10 15:14:57;;;;;;;7.60;3.10;;;;;;;;;;5085052;28;20202;-43
2022/08/10 15:17:38;;;;;;;8.15;3.30;;;;;;;;;;5084762;28;20199;-44
2022/08/10 15:20:20;;;;;;;6.40;1.77;;;;;;;;;;5082803;28;20211;-43
2022/08/10 15:22:52;;;;;;;3.78;1.48;;;;;;;;;;5083865;28;20263;-43
2022/08/10 15:25:23;;;;;;;1.98;1.25;;;;;;;;;;5081628;28;20193;-43
2022/08/10 15:27:57;;;;;;;3.35;1.30;;;;;;;;;;5082470;28;20664;-42
2022/08/10 15:30:38;;;;;;;6.03;1.27;;;;;;;;;;5083286;28;20703;-42
2022/08/10 15:39:08;;;;;;;15.63;1.75;;;;;;;;;;5081527;28;20188;-42
2022/08/10 15:41:59;;;;;;;9.13;1.50;;;;;;;;;;5081124;28;20192;-45
2022/08/10 15:44:41;;;;;;;5.05;1.50;;;;;;;;;;5082146;28;20286;-43
2022/08/10 15:47:25;;;;;;;5.85;1.45;;;;;;;;;;5116492;27;20192;-42
2022/08/10 15:50:22;;;;;;;2.55;1.30;;;;;;;;;;5082362;28;20645;-42
2022/08/10 15:52:53;;;;;;;3.75;1.60;;;;;;;;;;5083429;28;20202;-42